Time;durP1;ratioP1;P1;durP2;ratioP2;P2;SDS_P1;SDS_P2;PMS_P1;PMS_P2;Temp;Humidity;BMP_temperature;BMP_pressure;BME280_temperature;BME280_humidity;BME280_pressure;Samples;Min_cycle;Max_cycle;Signal;HPM_P1;HPM_P2
2023/07/31 00:00:16;;;;;;;3.95;1.70;;;16.50;99.90;;;;;;5050642;28;20049;-89
2023/07/31 00:02:42;;;;;;;3.78;1.25;;;16.40;99.90;;;;;;5010990;28;20119;-66
2023/07/31 00:05:09;;;;;;;1.65;1.13;;;16.40;99.90;;;;;;5046572;28;20124;-89
2023/07/31 00:07:35;;;;;;;0.85;0.85;;;16.40;99.90;;;;;;5052038;28;20103;-66
2023/07/31 00:10:01;;;;;;;3.75;1.20;;;16.40;99.90;;;;;;5050611;28;20527;-66
2023/07/31 00:12:27;;;;;;;1.35;1.02;;;16.40;99.90;;;;;;5047265;28;20519;-67
2023/07/31 00:14:52;;;;;;;1.30;1.08;;;16.30;99.90;;;;;;5051667;28;20333;-73
2023/07/31 00:17:18;;;;;;;4.57;1.20;;;16.40;99.90;;;;;;5049723;28;20048;-66
2023/07/31 00:19:46;;;;;;;1.98;1.38;;;16.30;99.90;;;;;;5052275;28;20044;-66
2023/07/31 00:22:12;;;;;;;1.08;1.08;;;16.30;99.90;;;;;;5066038;28;20110;-66
2023/07/31 00:24:38;;;;;;;2.10;1.50;;;16.30;99.90;;;;;;5066883;28;20101;-66
2023/07/31 00:27:04;;;;;;;1.80;0.98;;;16.30;99.90;;;;;;5047576;28;20048;-67
2023/07/31 00:29:30;;;;;;;2.58;1.20;;;16.30;99.90;;;;;;5067607;28;20070;-66
2023/07/31 00:31:56;;;;;;;1.13;1.00;;;16.30;99.90;;;;;;5040827;28;20091;-65
2023/07/31 00:34:22;;;;;;;2.67;1.02;;;16.30;99.90;;;;;;5059740;28;20064;-67
2023/07/31 00:36:47;;;;;;;1.98;1.52;;;16.20;99.90;;;;;;5034089;28;20052;-66
2023/07/31 00:39:13;;;;;;;1.40;0.98;;;16.30;99.90;;;;;;5066471;28;20489;-67
2023/07/31 00:41:39;;;;;;;1.52;1.00;;;16.20;99.90;;;;;;5066673;28;20045;-67
2023/07/31 00:44:05;;;;;;;3.97;1.40;;;16.20;99.90;;;;;;5066145;28;20047;-67
2023/07/31 00:46:30;;;;;;;1.33;0.90;;;16.30;99.90;;;;;;5049523;28;20106;-67
2023/07/31 00:48:56;;;;;;;1.85;1.30;;;16.20;99.90;;;;;;5047007;28;20134;-67
2023/07/31 00:51:22;;;;;;;1.02;1.00;;;16.20;99.90;;;;;;5066111;28;20064;-66
2023/07/31 00:53:48;;;;;;;1.15;1.08;;;16.30;99.90;;;;;;5065476;28;20494;-66
2023/07/31 00:56:15;;;;;;;1.13;1.13;;;16.20;99.90;;;;;;5066947;28;20056;-67
2023/07/31 00:58:40;;;;;;;1.75;1.08;;;16.20;99.90;;;;;;5065724;28;20056;-66
2023/07/31 01:01:06;;;;;;;1.60;1.08;;;16.20;99.90;;;;;;5048196;28;20041;-66
2023/07/31 01:03:32;;;;;;;0.90;0.90;;;16.20;99.90;;;;;;5067082;28;20398;-67
2023/07/31 01:06:04;;;;;;;1.00;0.90;;;16.10;99.90;;;;;;5064237;28;20068;-68
2023/07/31 01:09:02;;;;;;;2.65;1.13;;;16.10;99.90;;;;;;5048489;28;20048;-67
2023/07/31 01:11:36;;;;;;;0.98;0.85;;;16.00;99.90;;;;;;5052777;28;20056;-67
2023/07/31 01:14:03;;;;;;;0.95;0.95;;;16.00;99.90;;;;;;5065182;28;20075;-67
2023/07/31 01:16:28;;;;;;;0.88;0.82;;;16.00;99.90;;;;;;5066314;28;20562;-67
2023/07/31 01:18:54;;;;;;;2.80;1.08;;;15.90;99.90;;;;;;5046127;28;20119;-68
2023/07/31 01:21:36;;;;;;;0.98;0.80;;;15.90;99.90;;;;;;5066430;28;20036;-67
2023/07/31 01:24:17;;;;;;;1.20;1.10;;;15.80;99.90;;;;;;5046157;28;20052;-82
2023/07/31 01:26:47;;;;;;;4.10;0.93;;;15.80;99.90;;;;;;5028827;28;20402;-69
2023/07/31 01:29:30;;;;;;;1.83;1.10;;;15.80;99.90;;;;;;5042013;28;20052;-70
2023/07/31 01:32:01;;;;;;;2.17;0.77;;;15.80;99.90;;;;;;5046017;28;20538;-72
2023/07/31 01:34:28;;;;;;;1.15;0.90;;;15.80;99.90;;;;;;5048164;28;20187;-73
2023/07/31 01:36:53;;;;;;;1.45;0.85;;;15.70;99.90;;;;;;5048108;28;20509;-74
2023/07/31 01:39:20;;;;;;;1.63;0.80;;;15.70;99.90;;;;;;5049234;28;20040;-73
2023/07/31 01:41:46;;;;;;;1.60;0.70;;;15.70;99.90;;;;;;5018644;28;20041;-73
2023/07/31 01:44:12;;;;;;;0.75;0.73;;;15.60;99.90;;;;;;5050749;28;20105;-71
2023/07/31 01:46:37;;;;;;;0.80;0.70;;;15.70;99.90;;;;;;5049905;28;20466;-72
2023/07/31 01:49:05;;;;;;;0.88;0.75;;;15.60;99.90;;;;;;5048170;28;20117;-71
2023/07/31 01:51:33;;;;;;;0.70;0.65;;;15.60;99.90;;;;;;5050670;28;20048;-71
2023/07/31 01:54:00;;;;;;;1.60;0.80;;;15.60;99.90;;;;;;5047027;28;20084;-72
2023/07/31 01:56:26;;;;;;;1.00;0.90;;;15.60;99.90;;;;;;5048823;28;20577;-72
2023/07/31 01:58:51;;;;;;;1.40;0.90;;;15.60;99.90;;;;;;5047574;28;20044;-71
2023/07/31 02:01:17;;;;;;;2.92;0.80;;;15.50;99.90;;;;;;5049581;28;20127;-72
2023/07/31 02:03:43;;;;;;;1.45;0.80;;;15.60;99.90;;;;;;5047986;28;20044;-72
2023/07/31 02:06:09;;;;;;;1.00;0.88;;;15.60;99.90;;;;;;5031240;28;20132;-72
2023/07/31 02:08:35;;;;;;;2.38;0.90;;;15.50;99.90;;;;;;5050141;28;20052;-71
2023/07/31 02:11:00;;;;;;;2.83;1.00;;;15.60;99.90;;;;;;5033576;28;20055;-72
2023/07/31 02:13:26;;;;;;;1.10;0.95;;;15.60;99.90;;;;;;5033003;28;20544;-71
2023/07/31 02:15:52;;;;;;;0.68;0.68;;;15.50;99.90;;;;;;5031637;28;20105;-72
2023/07/31 02:18:18;;;;;;;1.00;0.90;;;15.50;99.90;;;;;;5051289;28;20098;-73
2023/07/31 02:20:48;;;;;;;1.92;0.88;;;15.50;99.90;;;;;;5035405;28;20480;-78
2023/07/31 02:23:16;;;;;;;1.90;0.85;;;15.60;99.90;;;;;;5048846;28;20514;-73
2023/07/31 02:25:41;;;;;;;0.95;0.70;;;15.50;99.90;;;;;;5048683;28;20048;-74
2023/07/31 02:28:07;;;;;;;1.40;0.77;;;15.50;99.90;;;;;;5047842;28;20060;-72
2023/07/31 02:30:33;;;;;;;1.27;0.90;;;15.50;99.90;;;;;;5033322;28;20045;-73
2023/07/31 02:32:58;;;;;;;1.13;0.65;;;15.50;99.90;;;;;;5032024;28;20091;-73
2023/07/31 02:35:24;;;;;;;4.70;0.70;;;15.50;99.90;;;;;;5050052;28;20049;-72
2023/07/31 02:37:50;;;;;;;2.80;0.60;;;15.40;99.90;;;;;;5048027;28;20491;-72
2023/07/31 02:40:16;;;;;;;0.60;0.60;;;15.50;99.90;;;;;;5032991;28;20086;-71
2023/07/31 02:42:41;;;;;;;1.45;0.60;;;15.50;99.90;;;;;;5048921;28;20062;-72
2023/07/31 02:45:08;;;;;;;0.75;0.60;;;15.50;99.90;;;;;;5047918;28;20139;-72
2023/07/31 02:47:33;;;;;;;2.00;0.60;;;15.40;99.90;;;;;;5048142;28;20482;-71
2023/07/31 02:49:59;;;;;;;0.70;0.50;;;15.50;99.90;;;;;;5045140;28;20052;-71
2023/07/31 02:52:25;;;;;;;0.82;0.63;;;15.50;99.90;;;;;;5049745;28;20088;-71
2023/07/31 02:54:52;;;;;;;0.90;0.55;;;15.50;99.90;;;;;;5047665;28;20549;-72
2023/07/31 02:57:17;;;;;;;1.95;0.52;;;15.40;99.90;;;;;;5031603;28;20087;-71
2023/07/31 02:59:43;;;;;;;0.50;0.50;;;15.40;99.90;;;;;;5023154;28;20072;-70
2023/07/31 03:02:09;;;;;;;0.90;0.50;;;15.40;99.90;;;;;;5048928;28;20527;-71
2023/07/31 03:04:34;;;;;;;0.40;0.40;;;15.50;99.90;;;;;;5047848;28;20542;-70
2023/07/31 03:07:00;;;;;;;2.90;0.52;;;15.40;99.90;;;;;;5048426;28;20045;-70
2023/07/31 03:09:26;;;;;;;0.40;0.40;;;15.40;99.90;;;;;;5043213;28;20389;-70
2023/07/31 03:11:51;;;;;;;0.60;0.40;;;15.40;99.90;;;;;;5029280;28;20131;-70
2023/07/31 03:15:08;;;;;;;0.90;0.40;;;15.40;99.90;;;;;;5125618;27;20398;-70
2023/07/31 03:17:34;;;;;;;0.43;0.43;;;15.40;99.90;;;;;;5104750;28;20126;-69
2023/07/31 03:19:59;;;;;;;0.50;0.50;;;15.50;99.90;;;;;;5140862;27;20130;-70
2023/07/31 03:22:25;;;;;;;2.38;0.47;;;15.50;99.90;;;;;;5104360;28;20054;-70
2023/07/31 03:24:51;;;;;;;0.20;0.20;;;15.50;99.90;;;;;;5133419;27;20040;-70
2023/07/31 03:27:16;;;;;;;0.30;0.30;;;15.40;99.90;;;;;;5117030;28;20596;-70
2023/07/31 03:29:42;;;;;;;0.68;0.52;;;15.40;99.90;;;;;;5088174;28;20380;-69
2023/07/31 03:32:08;;;;;;;2.65;0.50;;;15.40;99.90;;;;;;5104582;28;20481;-70
2023/07/31 03:34:34;;;;;;;1.58;0.40;;;15.30;99.90;;;;;;5102650;28;20047;-70
2023/07/31 03:37:00;;;;;;;0.70;0.30;;;15.40;99.90;;;;;;5094588;28;20441;-69
2023/07/31 03:39:26;;;;;;;0.50;0.40;;;15.40;99.90;;;;;;5099974;28;20048;-70
2023/07/31 03:41:51;;;;;;;0.28;0.28;;;15.40;99.90;;;;;;5105067;28;20043;-70
2023/07/31 03:44:17;;;;;;;0.73;0.30;;;15.40;99.90;;;;;;5099295;28;20397;-70
2023/07/31 03:46:43;;;;;;;5.45;0.30;;;15.40;99.90;;;;;;5130889;27;20090;-69
2023/07/31 03:49:09;;;;;;;0.90;0.25;;;15.40;99.90;;;;;;5090500;28;20073;-70
2023/07/31 03:51:35;;;;;;;1.15;0.40;;;15.30;99.90;;;;;;5093302;28;20093;-69
2023/07/31 03:54:00;;;;;;;0.45;0.40;;;15.30;99.90;;;;;;5094142;28;20083;-69
2023/07/31 03:56:26;;;;;;;0.30;0.28;;;15.30;99.90;;;;;;5101860;28;20050;-70
2023/07/31 03:58:52;;;;;;;0.70;0.28;;;15.40;99.90;;;;;;5089951;28;20419;-69
2023/07/31 04:01:19;;;;;;;0.30;0.30;;;15.30;99.90;;;;;;5088871;28;20058;-69
2023/07/31 04:03:45;;;;;;;0.30;0.30;;;15.30;99.90;;;;;;5082693;28;20046;-69
2023/07/31 04:06:11;;;;;;;1.65;0.40;;;15.30;99.90;;;;;;5118969;28;20430;-69
2023/07/31 04:08:37;;;;;;;0.20;0.20;;;15.30;99.90;;;;;;5081461;28;20051;-69
2023/07/31 04:11:02;;;;;;;0.65;0.40;;;15.40;99.90;;;;;;5073404;28;20039;-69
2023/07/31 04:13:30;;;;;;;0.55;0.45;;;15.30;99.90;;;;;;5119583;28;20059;-70
2023/07/31 04:15:55;;;;;;;1.65;0.30;;;15.30;99.90;;;;;;5121265;28;20493;-69
2023/07/31 04:18:22;;;;;;;0.47;0.30;;;15.30;99.90;;;;;;5094079;28;20172;-69
2023/07/31 04:20:47;;;;;;;0.38;0.38;;;15.30;99.90;;;;;;5100116;28;20059;-69
2023/07/31 04:23:13;;;;;;;0.28;0.28;;;15.30;99.90;;;;;;5116485;28;20127;-70
2023/07/31 04:25:39;;;;;;;5.93;0.28;;;15.30;99.90;;;;;;5079124;28;20040;-70
2023/07/31 04:28:05;;;;;;;0.98;0.20;;;15.40;99.90;;;;;;5089993;28;20424;-70
2023/07/31 04:30:31;;;;;;;0.75;0.40;;;15.40;99.90;;;;;;5104831;28;20047;-70
2023/07/31 04:32:56;;;;;;;0.30;0.30;;;15.30;99.90;;;;;;5089764;28;20134;-70
2023/07/31 04:35:22;;;;;;;1.30;0.32;;;15.40;99.90;;;;;;5066925;28;20047;-69
2023/07/31 04:37:48;;;;;;;0.45;0.40;;;15.30;99.90;;;;;;5124034;27;20051;-70
2023/07/31 04:40:15;;;;;;;0.32;0.28;;;15.40;99.90;;;;;;5109453;28;20051;-70
2023/07/31 04:42:41;;;;;;;1.65;0.43;;;15.40;99.90;;;;;;5075261;28;20050;-70
2023/07/31 04:45:08;;;;;;;0.80;0.40;;;15.50;99.90;;;;;;5077609;28;20389;-71
2023/07/31 04:47:34;;;;;;;1.65;0.32;;;15.50;99.90;;;;;;5088340;28;20056;-71
2023/07/31 04:50:00;;;;;;;0.60;0.30;;;15.50;99.90;;;;;;5125574;27;20046;-70
2023/07/31 04:52:25;;;;;;;2.13;0.43;;;15.40;99.90;;;;;;5106148;28;20535;-70
2023/07/31 04:54:51;;;;;;;6.78;0.40;;;15.40;99.90;;;;;;5122894;27;20048;-70
2023/07/31 04:57:17;;;;;;;5.20;0.52;;;15.50;99.90;;;;;;5094895;28;20051;-71
2023/07/31 04:59:42;;;;;;;3.38;0.47;;;15.50;99.90;;;;;;5058422;28;20079;-71
2023/07/31 05:02:11;;;;;;;1.17;0.47;;;15.50;99.90;;;;;;5101987;28;20043;-70
2023/07/31 05:04:37;;;;;;;0.83;0.33;;;15.40;99.90;;;;;;5091570;28;20486;-70
2023/07/31 05:07:03;;;;;;;1.55;0.40;;;15.40;99.90;;;;;;5077454;28;20101;-70
2023/07/31 05:09:29;;;;;;;1.75;0.40;;;15.40;99.90;;;;;;5082787;28;20048;-70
2023/07/31 05:11:54;;;;;;;6.32;0.70;;;15.40;99.90;;;;;;5082376;28;20066;-71
2023/07/31 05:14:20;;;;;;;1.30;0.50;;;15.50;99.90;;;;;;5051535;28;20548;-70
2023/07/31 05:16:46;;;;;;;1.65;0.65;;;15.40;99.90;;;;;;5057383;28;20048;-70
2023/07/31 05:19:12;;;;;;;0.30;0.30;;;15.40;99.90;;;;;;5044056;28;20566;-71
2023/07/31 05:21:37;;;;;;;0.85;0.40;;;15.50;99.90;;;;;;5065011;28;20078;-71
2023/07/31 05:24:04;;;;;;;1.70;0.50;;;15.50;99.90;;;;;;5067202;28;20044;-71
2023/07/31 05:26:30;;;;;;;0.60;0.28;;;15.40;99.90;;;;;;5046495;28;20449;-70
2023/07/31 05:28:55;;;;;;;1.15;0.52;;;15.40;99.90;;;;;;5066345;28;20056;-71
2023/07/31 05:31:22;;;;;;;0.30;0.30;;;15.50;99.90;;;;;;5042322;28;20075;-70
2023/07/31 05:33:50;;;;;;;0.35;0.30;;;15.50;99.90;;;;;;5055301;28;20098;-70
2023/07/31 05:36:16;;;;;;;1.10;0.30;;;15.60;99.90;;;;;;5050539;28;20120;-70
2023/07/31 05:38:44;;;;;;;0.50;0.30;;;15.50;99.90;;;;;;5051919;28;20106;-71
2023/07/31 05:41:10;;;;;;;0.63;0.22;;;15.50;99.90;;;;;;5051880;28;20050;-70
2023/07/31 05:43:35;;;;;;;1.25;0.30;;;15.50;99.90;;;;;;5046603;28;20036;-70
2023/07/31 05:46:01;;;;;;;0.20;0.20;;;15.50;99.90;;;;;;5049754;28;20045;-70
2023/07/31 05:48:27;;;;;;;0.25;0.25;;;15.50;99.90;;;;;;5061806;28;20048;-70
2023/07/31 05:50:53;;;;;;;1.17;0.35;;;15.50;99.90;;;;;;5055679;28;20086;-70
2023/07/31 05:53:18;;;;;;;0.30;0.20;;;15.60;99.90;;;;;;5060413;28;20056;-70
2023/07/31 05:55:44;;;;;;;0.65;0.47;;;15.60;99.90;;;;;;5065364;28;20040;-71
2023/07/31 05:58:10;;;;;;;1.10;0.20;;;15.50;99.90;;;;;;5063601;28;20056;-71
2023/07/31 06:00:36;;;;;;;0.25;0.10;;;15.60;99.90;;;;;;5035410;28;20483;-71
2023/07/31 06:03:02;;;;;;;0.90;0.10;;;15.70;99.90;;;;;;5060150;28;20052;-71
2023/07/31 06:05:29;;;;;;;0.10;0.10;;;15.60;99.90;;;;;;5046136;28;20048;-71
2023/07/31 06:07:55;;;;;;;0.20;0.03;;;15.70;99.90;;;;;;5065471;28;20059;-71
2023/07/31 06:10:22;;;;;;;2.78;0.10;;;15.70;99.90;;;;;;5047483;28;20120;-71
2023/07/31 06:12:47;;;;;;;0.50;0.50;;;15.70;99.90;;;;;;5066593;28;20056;-71
2023/07/31 06:15:13;;;;;;;3.60;0.20;;;15.60;99.90;;;;;;5086625;28;20570;-71
2023/07/31 06:17:39;;;;;;;0.65;0.10;;;15.60;99.90;;;;;;5107413;27;20084;-71
2023/07/31 06:20:06;;;;;;;0.10;0.10;;;15.70;99.90;;;;;;5110029;27;20048;-71
2023/07/31 06:22:32;;;;;;;0.88;0.15;;;15.60;99.90;;;;;;5081753;28;20455;-78
2023/07/31 06:24:58;;;;;;;0.10;0.10;;;15.70;99.90;;;;;;5072254;28;20100;-71
2023/07/31 06:27:24;;;;;;;0.47;0.08;;;15.60;99.90;;;;;;5074330;28;20446;-70
2023/07/31 06:29:50;;;;;;;2.45;0.10;;;15.70;99.90;;;;;;5074179;28;20051;-71
2023/07/31 06:32:16;;;;;;;0.55;0.15;;;15.80;99.90;;;;;;5079020;28;20050;-70
2023/07/31 06:34:41;;;;;;;0.10;0.10;;;15.70;99.90;;;;;;5065765;28;20039;-70
2023/07/31 06:37:07;;;;;;;1.55;0.20;;;15.80;99.90;;;;;;5078090;28;20097;-70
2023/07/31 06:39:33;;;;;;;0.20;0.20;;;15.80;99.90;;;;;;5092239;28;20085;-70
2023/07/31 06:41:59;;;;;;;0.20;0.20;;;15.80;99.90;;;;;;5069102;28;20040;-70
2023/07/31 06:44:24;;;;;;;0.90;0.20;;;15.80;99.90;;;;;;5065386;28;20039;-71
2023/07/31 06:46:50;;;;;;;0.52;0.28;;;15.80;99.90;;;;;;5070661;28;20040;-72
2023/07/31 06:49:16;;;;;;;0.40;0.30;;;15.80;99.90;;;;;;5072967;28;20588;-72
2023/07/31 06:51:42;;;;;;;0.98;0.52;;;15.90;99.90;;;;;;5072683;28;20119;-71
2023/07/31 06:54:08;;;;;;;0.30;0.30;;;15.90;99.90;;;;;;5067603;28;20087;-71
2023/07/31 06:56:34;;;;;;;1.60;0.65;;;15.90;99.90;;;;;;5069224;28;20048;-71
2023/07/31 06:59:00;;;;;;;1.63;0.50;;;15.90;99.90;;;;;;5070597;28;20371;-70
2023/07/31 07:01:27;;;;;;;2.22;0.75;;;16.00;99.90;;;;;;5076701;28;20071;-71
2023/07/31 07:03:53;;;;;;;1.23;0.70;;;16.00;99.90;;;;;;5085962;28;20101;-71
2023/07/31 07:06:19;;;;;;;1.27;0.50;;;16.00;99.90;;;;;;5057586;28;20059;-71
2023/07/31 07:08:44;;;;;;;0.50;0.50;;;16.20;99.90;;;;;;5074049;28;20086;-70
2023/07/31 07:11:10;;;;;;;2.28;0.70;;;16.10;99.90;;;;;;5056546;28;20047;-70
2023/07/31 07:13:36;;;;;;;3.50;0.73;;;16.30;99.90;;;;;;5123919;28;20086;-70
2023/07/31 07:16:02;;;;;;;1.95;1.00;;;16.30;99.90;;;;;;5122171;28;20043;-69
2023/07/31 07:18:28;;;;;;;1.88;0.85;;;16.40;99.90;;;;;;5089165;28;20048;-70
2023/07/31 07:20:54;;;;;;;3.15;1.17;;;16.30;99.90;;;;;;5119207;28;20071;-70
2023/07/31 07:23:20;;;;;;;3.88;1.10;;;16.50;99.90;;;;;;5086298;28;20400;-70
2023/07/31 07:25:47;;;;;;;3.88;1.52;;;16.60;99.90;;;;;;5105632;28;20056;-70
2023/07/31 07:28:13;;;;;;;7.55;1.73;;;16.50;99.90;;;;;;5104979;28;20047;-69
2023/07/31 07:30:39;;;;;;;7.43;2.08;;;16.80;99.90;;;;;;5087450;28;20050;-70
2023/07/31 07:33:05;;;;;;;7.13;2.08;;;16.70;99.90;;;;;;5083645;28;20096;-69
2023/07/31 07:35:34;;;;;;;5.68;2.25;;;16.70;99.90;;;;;;5087795;28;20375;-69
2023/07/31 07:38:02;;;;;;;8.88;2.20;;;16.80;99.90;;;;;;5084385;28;20109;-70
2023/07/31 07:40:28;;;;;;;11.95;3.13;;;16.80;99.90;;;;;;5058008;28;20510;-69
2023/07/31 07:42:54;;;;;;;10.77;2.38;;;16.90;99.90;;;;;;5105993;28;20135;-74
2023/07/31 07:45:19;;;;;;;10.88;3.28;;;16.90;99.90;;;;;;5120895;28;20124;-69
2023/07/31 07:47:45;;;;;;;16.65;3.42;;;17.00;99.90;;;;;;5122493;28;20115;-70
2023/07/31 07:50:11;;;;;;;17.17;3.58;;;17.00;99.90;;;;;;5103759;28;20142;-69
2023/07/31 07:52:37;;;;;;;18.15;3.92;;;17.10;99.90;;;;;;5076373;28;20073;-70
2023/07/31 07:55:03;;;;;;;18.73;3.90;;;17.10;99.90;;;;;;5084183;28;20043;-70
2023/07/31 07:57:29;;;;;;;22.17;4.22;;;17.00;99.90;;;;;;5106262;28;20108;-70
2023/07/31 07:59:55;;;;;;;16.70;4.13;;;17.10;99.90;;;;;;5088373;28;20043;-70
2023/07/31 08:02:22;;;;;;;13.90;3.53;;;17.10;99.90;;;;;;5117047;27;20082;-69
2023/07/31 08:04:47;;;;;;;11.05;3.33;;;17.00;99.90;;;;;;5074737;28;20044;-70
2023/07/31 08:07:13;;;;;;;17.00;3.45;;;17.10;99.90;;;;;;5101706;28;20096;-69
2023/07/31 08:09:39;;;;;;;12.15;3.45;;;17.00;99.90;;;;;;5088660;28;20047;-70
2023/07/31 08:12:05;;;;;;;9.20;2.88;;;17.00;99.90;;;;;;5106351;27;20074;-71
2023/07/31 08:14:31;;;;;;;6.10;2.33;;;17.00;99.90;;;;;;5084235;28;20043;-70
2023/07/31 08:16:57;;;;;;;6.82;2.17;;;17.00;99.90;;;;;;5077063;28;20374;-70
2023/07/31 08:19:23;;;;;;;10.70;2.22;;;16.90;99.90;;;;;;5071628;28;20127;-71
2023/07/31 08:21:48;;;;;;;6.20;1.67;;;16.90;99.90;;;;;;5084726;28;20201;-70
2023/07/31 08:24:14;;;;;;;4.38;1.70;;;17.00;99.90;;;;;;5055157;28;20083;-70
2023/07/31 08:26:40;;;;;;;6.15;1.45;;;16.90;99.90;;;;;;5066800;28;20128;-70
2023/07/31 08:29:06;;;;;;;3.80;1.40;;;17.00;99.90;;;;;;5066826;28;20073;-68
2023/07/31 08:31:32;;;;;;;1.52;1.00;;;17.10;99.90;;;;;;5054343;28;20142;-69
2023/07/31 08:33:59;;;;;;;3.15;1.05;;;17.10;99.90;;;;;;5086804;28;20055;-70
2023/07/31 08:36:25;;;;;;;3.78;1.17;;;17.20;99.90;;;;;;5056400;28;20474;-69
2023/07/31 08:38:51;;;;;;;2.38;1.23;;;17.20;99.90;;;;;;5071935;28;20043;-69
2023/07/31 08:41:17;;;;;;;1.15;1.05;;;17.10;99.90;;;;;;5053090;28;20044;-69
2023/07/31 08:43:49;;;;;;;3.95;0.98;;;17.30;99.90;;;;;;5077749;28;20738;-69
2023/07/31 08:46:15;;;;;;;1.00;0.90;;;17.30;99.90;;;;;;5073380;28;20056;-69
2023/07/31 08:48:45;;;;;;;1.45;1.00;;;17.40;99.90;;;;;;5073742;28;20124;-68
2023/07/31 08:51:11;;;;;;;2.95;0.90;;;17.40;99.90;;;;;;5091007;28;20056;-69
2023/07/31 08:53:37;;;;;;;1.77;1.00;;;17.50;99.90;;;;;;5070447;28;20077;-69
2023/07/31 08:56:05;;;;;;;2.03;1.00;;;17.70;99.90;;;;;;5085012;28;20048;-69
2023/07/31 08:58:32;;;;;;;2.10;1.10;;;17.70;99.90;;;;;;5102875;28;20043;-69
2023/07/31 09:01:01;;;;;;;3.30;1.13;;;17.80;99.90;;;;;;5071490;28;20554;-71
2023/07/31 09:03:27;;;;;;;0.82;0.70;;;17.90;99.90;;;;;;5074372;28;20135;-69
2023/07/31 09:05:55;;;;;;;3.25;0.90;;;18.00;99.90;;;;;;5096584;28;20185;-69
2023/07/31 09:08:21;;;;;;;1.55;0.90;;;18.00;99.90;;;;;;5092807;28;20116;-69
2023/07/31 09:10:49;;;;;;;1.27;0.73;;;18.10;99.90;;;;;;5068969;28;20059;-69
2023/07/31 09:13:16;;;;;;;2.03;0.90;;;18.10;99.90;;;;;;5070027;28;20071;-69
2023/07/31 09:15:44;;;;;;;0.93;0.60;;;18.00;99.90;;;;;;5089637;28;20048;-69
2023/07/31 09:18:10;;;;;;;0.55;0.55;;;18.10;99.90;;;;;;5084107;28;20043;-69
2023/07/31 09:20:37;;;;;;;2.35;0.60;;;18.10;99.90;;;;;;5086589;28;20036;-69
2023/07/31 09:23:09;;;;;;;1.20;0.50;;;17.90;99.90;;;;;;5070486;28;20418;-69
2023/07/31 09:25:35;;;;;;;1.52;0.68;;;18.00;99.90;;;;;;5068058;28;20051;-69
2023/07/31 09:28:03;;;;;;;1.65;0.50;;;17.90;99.90;;;;;;5073354;28;20039;-69
2023/07/31 09:30:29;;;;;;;0.50;0.43;;;17.90;99.90;;;;;;5074530;28;20044;-69
2023/07/31 09:33:12;;;;;;;1.85;0.60;;;17.90;99.90;;;;;;5085161;22;20048;-95
2023/07/31 09:35:41;;;;;;;0.60;0.50;;;17.90;99.90;;;;;;5049992;22;20412;-69
2023/07/31 09:38:10;;;;;;;3.13;0.60;;;18.00;99.90;;;;;;5060954;28;20045;-70
2023/07/31 09:40:41;;;;;;;3.72;0.93;;;18.00;99.90;;;;;;5029427;28;20196;-69
2023/07/31 09:43:10;;;;;;;1.15;0.60;;;18.00;99.90;;;;;;5024561;28;20041;-70
2023/07/31 09:45:38;;;;;;;1.65;0.52;;;18.00;99.90;;;;;;5027478;28;20060;-70
2023/07/31 09:48:09;;;;;;;0.60;0.40;;;18.00;99.90;;;;;;5029566;28;20088;-69
2023/07/31 09:50:39;;;;;;;0.95;0.40;;;18.00;99.90;;;;;;5042739;28;20038;-70
2023/07/31 09:53:06;;;;;;;3.55;0.50;;;18.20;99.90;;;;;;5044568;28;20049;-69
2023/07/31 09:55:32;;;;;;;6.28;0.38;;;18.10;99.90;;;;;;5027300;28;20046;-70
2023/07/31 09:57:59;;;;;;;10.25;1.23;;;18.20;99.90;;;;;;5043362;28;20049;-71
2023/07/31 10:00:28;;;;;;;1.95;0.50;;;18.20;99.90;;;;;;5060746;28;20045;-70
2023/07/31 10:02:54;;;;;;;2.10;0.50;;;18.20;99.90;;;;;;5025732;28;20537;-70
2023/07/31 10:05:20;;;;;;;0.88;0.40;;;18.30;99.90;;;;;;5040232;28;20132;-70
2023/07/31 10:07:55;;;;;;;1.08;0.60;;;18.30;99.90;;;;;;5023166;28;20049;-70
2023/07/31 10:10:22;;;;;;;3.47;0.93;;;18.30;99.90;;;;;;5023822;28;20445;-71
2023/07/31 10:12:49;;;;;;;3.72;0.57;;;18.40;99.90;;;;;;5007025;28;20388;-70
2023/07/31 10:15:16;;;;;;;0.90;0.40;;;18.40;99.90;;;;;;5051303;28;20045;-70
2023/07/31 10:17:42;;;;;;;1.58;0.40;;;18.50;99.90;;;;;;5043084;28;20053;-71
2023/07/31 10:20:08;;;;;;;6.13;1.02;;;18.50;99.90;;;;;;5058869;28;20487;-70
2023/07/31 10:22:35;;;;;;;15.65;2.10;;;18.50;99.90;;;;;;5040690;28;20055;-69
2023/07/31 10:25:01;;;;;;;1.27;0.43;;;18.50;99.90;;;;;;5042953;28;20053;-70
2023/07/31 10:27:28;;;;;;;2.60;0.40;;;18.50;99.90;;;;;;5025672;28;20411;-70
2023/07/31 10:29:56;;;;;;;2.75;0.40;;;18.60;99.90;;;;;;5043196;28;20077;-69
2023/07/31 10:32:23;;;;;;;0.45;0.10;;;18.60;99.90;;;;;;5036668;28;20134;-70
2023/07/31 10:34:51;;;;;;;0.95;0.20;;;18.60;99.90;;;;;;5027862;28;20073;-70
2023/07/31 10:37:28;;;;;;;5.93;0.47;;;18.50;99.90;;;;;;5026009;28;20470;-69
2023/07/31 10:40:04;;;;;;;0.38;0.20;;;18.50;99.90;;;;;;5027164;28;20041;-69
2023/07/31 10:42:35;;;;;;;0.20;0.20;;;18.60;99.90;;;;;;5032868;28;20045;-68
2023/07/31 10:45:06;;;;;;;0.32;0.32;;;18.60;99.90;;;;;;5028747;28;20041;-70
2023/07/31 10:47:43;;;;;;;0.47;0.17;;;18.70;99.90;;;;;;5026472;28;20038;-69
2023/07/31 10:50:20;;;;;;;0.10;0.10;;;18.80;99.90;;;;;;5026319;28;20053;-69
2023/07/31 10:52:51;;;;;;;0.30;0.15;;;18.90;99.90;;;;;;5028318;28;20053;-69
2023/07/31 10:55:29;;;;;;;0.32;0.30;;;18.90;99.90;;;;;;5025550;28;20487;-69
2023/07/31 10:57:57;;;;;;;0.20;0.20;;;18.80;99.90;;;;;;5024715;28;20155;-69
2023/07/31 11:00:29;;;;;;;1.45;0.20;;;18.90;99.90;;;;;;5024778;28;20048;-69
2023/07/31 11:03:18;;;;;;;1.75;0.20;;;18.80;99.90;;;;;;5009660;28;20191;-70
2023/07/31 11:06:03;;;;;;;0.10;0.10;;;18.90;99.90;;;;;;5036727;28;20144;-70
2023/07/31 11:08:34;;;;;;;0.10;0.10;;;19.00;99.90;;;;;;5048433;28;20400;-70
2023/07/31 11:11:03;;;;;;;0.00;0.00;;;18.90;99.90;;;;;;5025908;28;20084;-69
2023/07/31 11:13:44;;;;;;;0.10;0.10;;;18.90;99.90;;;;;;5027188;28;20045;-70
2023/07/31 11:16:12;;;;;;;0.17;0.10;;;19.00;99.90;;;;;;5024539;28;20550;-70
2023/07/31 11:18:45;;;;;;;0.20;0.00;;;18.90;99.90;;;;;;5026531;28;20068;-70
2023/07/31 11:21:18;;;;;;;4.10;0.22;;;18.90;99.90;;;;;;5037581;28;20049;-71
2023/07/31 11:23:53;;;;;;;0.10;0.10;;;18.70;99.90;;;;;;5044729;28;20121;-70
2023/07/31 11:26:19;;;;;;;0.28;0.00;;;18.90;99.90;;;;;;5026989;28;20394;-70
2023/07/31 11:28:49;;;;;;;0.00;0.00;;;19.10;99.90;;;;;;5025793;28;20042;-70
2023/07/31 11:31:15;;;;;;;0.13;0.13;;;19.40;99.90;;;;;;5020216;28;20380;-69
2023/07/31 11:33:41;;;;;;;0.10;0.00;;;19.70;99.90;;;;;;5024135;28;20437;-69
2023/07/31 11:36:17;;;;;;;0.10;0.00;;;19.80;99.90;;;;;;5011724;28;20129;-69
2023/07/31 11:38:43;;;;;;;0.60;0.32;;;19.80;99.90;;;;;;5029758;28;20053;-69
2023/07/31 11:41:09;;;;;;;0.03;0.00;;;19.70;99.90;;;;;;5030311;28;20427;-69
2023/07/31 11:43:36;;;;;;;1.80;0.05;;;19.70;99.90;;;;;;5029275;28;20048;-68
2023/07/31 11:46:02;;;;;;;0.40;0.10;;;19.60;99.90;;;;;;5012581;28;20057;-69
2023/07/31 11:48:34;;;;;;;0.47;0.10;;;19.60;99.90;;;;;;5031666;28;20049;-69
2023/07/31 11:51:02;;;;;;;0.00;0.00;;;19.50;99.90;;;;;;5059534;28;20049;-69
2023/07/31 11:53:57;;;;;;;0.20;0.17;;;19.40;99.90;;;;;;5029918;28;20127;-69
2023/07/31 11:56:24;;;;;;;5.82;0.20;;;19.40;99.90;;;;;;5053452;28;20053;-68
2023/07/31 11:58:55;;;;;;;0.17;0.13;;;19.50;99.90;;;;;;5034975;28;20058;-68
2023/07/31 12:01:22;;;;;;;0.47;0.20;;;19.70;99.90;;;;;;5024984;28;20781;-68
2023/07/31 12:03:49;;;;;;;1.25;0.35;;;19.70;99.90;;;;;;5020411;28;20038;-69
2023/07/31 12:06:15;;;;;;;1.70;1.00;;;19.60;99.90;;;;;;5030664;28;20403;-69
2023/07/31 12:08:40;;;;;;;1.67;0.98;;;19.30;99.90;;;;;;5013459;28;20041;-69
2023/07/31 12:11:13;;;;;;;2.25;0.95;;;19.00;99.90;;;;;;5030102;28;20412;-68
2023/07/31 12:13:39;;;;;;;0.55;0.52;;;19.00;99.90;;;;;;5027629;28;20057;-68
2023/07/31 12:16:05;;;;;;;0.85;0.85;;;18.90;99.90;;;;;;5029471;28;20041;-68
2023/07/31 12:18:36;;;;;;;1.38;0.80;;;18.70;99.90;;;;;;5029757;28;20561;-68
2023/07/31 12:21:04;;;;;;;1.05;0.50;;;18.80;99.90;;;;;;5061823;28;20049;-69
2023/07/31 12:23:34;;;;;;;0.70;0.70;;;18.70;99.90;;;;;;5029722;28;20069;-71
2023/07/31 12:26:00;;;;;;;0.38;0.38;;;18.70;99.90;;;;;;5029895;28;20057;-71
2023/07/31 12:28:26;;;;;;;2.95;0.73;;;18.70;99.90;;;;;;5045691;28;20176;-71
2023/07/31 12:30:56;;;;;;;1.27;0.50;;;18.80;99.90;;;;;;5062154;28;20162;-70
2023/07/31 12:33:22;;;;;;;1.73;0.50;;;19.00;99.90;;;;;;5024291;28;20057;-70
2023/07/31 12:35:52;;;;;;;2.53;0.40;;;19.10;99.90;;;;;;5027992;28;20483;-69
2023/07/31 12:38:17;;;;;;;0.20;0.20;;;19.20;99.90;;;;;;5028407;28;20043;-69
2023/07/31 12:40:43;;;;;;;1.10;0.50;;;19.50;99.90;;;;;;5060342;28;20059;-69
2023/07/31 12:43:09;;;;;;;0.28;0.28;;;19.60;99.90;;;;;;5061299;28;20487;-69
2023/07/31 12:45:35;;;;;;;0.80;0.40;;;19.50;99.90;;;;;;5026699;28;20042;-68